Bei Facebook empfehlenBei Twitter postenGoogle plusPinterest

Das Wetter im Erzgebirge am 11.01.2016

Wetter und Klima am 11.01.2016 Holzhau im Erzgebirge (630m ü.NN)
Letzte gemessene Temperatur und Uhrzeit der Messung23:45:00 Uhr2.40 °C
Temperatur (Maximum / Höchstwert) und Uhrzeit der Messung13:00:00 Uhr3.60 °C
Temperatur (Minimum / Tiefstwert) und Uhrzeit der Messung18:30:000.60 °C
Errechneter Absolutwert der Temperaturschwankungen zwischen Tmin und Tmax des Tages3.00 K
Errechnete Tagesmitteltemperatur1.59479 °C
Gesamt - Niederschlag des Tages (in flüssiger Form)1.56 Liter / m²
Luftdruck (Maximum / Höchstwert) und Zeitpunkt der Messung00:00:00 Uhr992.80 hPa
Luftdruck (Minimum / Tiefstwert) und Zeitpunkt der Messung21:15:00 Uhr986.10 hPa
Errechneter Absolutwert der Luftdruckschwankungen des Tages6.70 hPa
Höchste gemessene Windgeschwindigkeit und Uhrzeit der Messung11:45:00 Uhr11.16 km/h
Errechnete Windhäufigkeit in Relation zu den Messwerten des Tages29.16667 %
Niedrigste Windkühle (Windchill) und Zeitpunkt der Messung21:15:00 Uhr-1.80 °C
Taupunkt (Maximum / Höchstwert) und Uhrzeit der Messung13:00:00 Uhr2.90 °C
Taupunkt (Minimum / Tiefstwert) und Uhrzeit der Messung18:30:00-0.30 °C
Anzahl der automatisch eingelesenen Messwerte 96

Detaillierte Wetter- und Klima- Messwerte für den 11.01.2016 in Holzhau im Erzgebirge (630m ü.NN)
ZeitTemperaturLuftdruckRel. LuftfeuchteWindWindrichtungWindchillTaupunktNiederschlag l/m²
23:45:002.40 °C986.40 hPa95.00 %1.70 °C1.56
23:30:002.30 °C986.30 hPa95.00 %2.16 km/hWNW2.30 °C1.60 °C1.56
23:15:002.20 °C986.30 hPa95.00 %4.32 km/hSW2.20 °C1.50 °C1.56
23:00:002.10 °C986.30 hPa95.00 %8.64 km/hSW-0.50 °C1.40 °C1.56
22:45:001.80 °C986.50 hPa95.00 %8.64 km/hSSW-0.80 °C1.10 °C1.56
22:30:001.90 °C986.60 hPa95.00 %1.20 °C1.56
22:15:001.80 °C986.80 hPa95.00 %9.00 km/hSW-0.90 °C1.10 °C1.56
22:00:001.50 °C987.00 hPa95.00 %0.80 °C1.56
21:45:001.30 °C986.60 hPa95.00 %0.60 °C1.56
21:30:001.30 °C986.50 hPa95.00 %0.60 °C1.56
21:15:001.30 °C986.10 hPa95.00 %10.08 km/hSW-1.80 °C0.60 °C1.56
21:00:001.30 °C986.50 hPa95.00 %5.40 km/hSW-0.30 °C0.60 °C1.56
20:45:001.30 °C986.60 hPa95.00 %0.60 °C1.56
20:30:001.30 °C986.70 hPa95.00 %2.88 km/hSSW1.30 °C0.60 °C1.56
20:15:001.20 °C986.70 hPa95.00 %4.32 km/hSW1.20 °C0.50 °C1.56
20:00:001.10 °C986.90 hPa95.00 %0.40 °C1.56
19:45:001.10 °C987.00 hPa95.00 %3.96 km/hWSW1.10 °C0.40 °C1.56
19:30:000.90 °C987.00 hPa95.00 %4.32 km/hSSO0.90 °C0.20 °C1.56
19:15:000.80 °C986.70 hPa95.00 %1.08 km/hONO0.80 °C0.10 °C1.56
19:00:000.80 °C987.30 hPa95.00 %0.10 °C1.56
18:45:000.70 °C986.90 hPa94.00 %-0.20 °C1.56
18:30:000.60 °C987.10 hPa94.00 %-0.30 °C1.56
18:15:000.60 °C987.30 hPa94.00 %-0.30 °C1.04
18:00:000.70 °C987.10 hPa94.00 %-0.20 °C1.04
17:45:000.70 °C986.80 hPa94.00 %-0.20 °C1.04
17:30:000.70 °C987.10 hPa94.00 %-0.20 °C1.04
17:15:000.80 °C987.50 hPa94.00 %-0.10 °C1.04
17:00:000.90 °C987.20 hPa94.00 %0.00 °C1.04
16:45:000.90 °C987.40 hPa94.00 %0.00 °C1.04
16:30:001.10 °C986.90 hPa94.00 %0.20 °C1.04
16:15:001.30 °C987.10 hPa94.00 %0.40 °C1.04
16:00:001.50 °C987.50 hPa94.00 %0.60 °C1.04
15:45:001.90 °C987.80 hPa94.00 %1.00 °C0.52
15:30:001.90 °C987.40 hPa94.00 %1.00 °C0.52
15:15:001.90 °C987.80 hPa94.00 %1.00 °C0.52
15:00:001.90 °C987.60 hPa94.00 %1.00 °C0.52
14:45:002.00 °C987.90 hPa94.00 %1.10 °C0.52
14:30:002.10 °C988.00 hPa94.00 %1.20 °C0.52
14:15:002.20 °C988.00 hPa94.00 %1.30 °C0.52
14:00:002.40 °C988.00 hPa94.00 %1.50 °C0.52
13:45:002.70 °C987.90 hPa94.00 %1.80 °C0.52
13:30:003.10 °C988.10 hPa95.00 %2.40 °C0.52
13:15:003.40 °C988.40 hPa95.00 %2.70 °C0.52
13:00:003.60 °C988.40 hPa95.00 %6.12 km/hSSW2.10 °C2.90 °C0.52
12:45:003.20 °C989.00 hPa95.00 %2.50 °C0.52
12:30:003.10 °C989.30 hPa95.00 %1.44 km/hOSO3.10 °C2.40 °C0.52
12:15:002.90 °C989.70 hPa95.00 %2.20 °C0.52
12:00:002.90 °C989.90 hPa95.00 %4.32 km/hSSO2.90 °C2.20 °C0.52
11:45:003.10 °C989.80 hPa95.00 %11.16 km/hSSW0.10 °C2.40 °C0.52
11:30:002.90 °C990.30 hPa95.00 %2.20 °C0.52
11:15:002.50 °C990.30 hPa95.00 %1.80 °C0.52
11:00:002.10 °C990.70 hPa95.00 %1.40 °C0.52
10:45:001.90 °C990.70 hPa95.00 %1.20 °C0.52
10:30:001.50 °C990.90 hPa95.00 %0.80 °C0.52
10:15:001.30 °C990.80 hPa95.00 %0.60 °C0.52
10:00:001.00 °C990.60 hPa95.00 %1.44 km/hSO1.00 °C0.30 °C0.52
09:45:000.90 °C990.60 hPa95.00 %0.20 °C0.52
09:30:000.70 °C990.80 hPa94.00 %-0.20 °C0.52
09:15:000.70 °C990.80 hPa94.00 %-0.20 °C0.52
09:00:000.80 °C990.80 hPa95.00 %0.10 °C0.52
08:45:000.70 °C990.90 hPa94.00 %-0.20 °C0.52
08:30:000.70 °C990.90 hPa94.00 %-0.20 °C0.52
08:15:000.80 °C990.80 hPa94.00 %-0.10 °C0.52
08:00:001.00 °C990.80 hPa94.00 %0.10 °C0.52
07:45:001.10 °C991.30 hPa95.00 %0.40 °C0.52
07:30:001.10 °C991.40 hPa94.00 %0.20 °C0.52
07:15:001.20 °C991.50 hPa94.00 %0.30 °C0.52
07:00:001.30 °C991.40 hPa94.00 %0.40 °C0.52
06:45:001.60 °C991.60 hPa94.00 %0.70 °C0.52
06:30:001.90 °C991.60 hPa94.00 %1.00 °C 
06:15:002.10 °C991.70 hPa94.00 %1.20 °C 
06:00:002.10 °C991.70 hPa95.00 %7.20 km/hSW0.00 °C1.40 °C 
05:45:001.90 °C991.80 hPa95.00 %6.48 km/hSW0.00 °C1.20 °C 
05:30:001.50 °C992.10 hPa95.00 %1.80 km/hSW1.50 °C0.80 °C 
05:15:001.30 °C992.30 hPa94.00 %0.40 °C 
05:00:001.50 °C991.80 hPa94.00 %0.60 °C 
04:45:001.80 °C992.00 hPa94.00 %0.90 °C 
04:30:001.90 °C992.40 hPa95.00 %1.20 °C 
04:15:001.90 °C992.50 hPa94.00 %1.00 °C 
04:00:002.00 °C992.40 hPa95.00 %1.30 °C 
03:45:002.10 °C992.30 hPa95.00 %1.40 °C 
03:30:001.90 °C992.50 hPa95.00 %6.12 km/hSW0.10 °C1.20 °C 
03:15:001.90 °C992.20 hPa95.00 %1.20 °C 
03:00:001.80 °C992.00 hPa95.00 %1.10 °C 
02:45:001.60 °C992.30 hPa95.00 %3.60 km/hSW1.60 °C0.90 °C 
02:30:001.30 °C992.00 hPa94.00 %0.40 °C 
02:15:001.30 °C992.10 hPa94.00 %3.24 km/hSSO1.30 °C0.40 °C 
02:00:001.30 °C992.40 hPa94.00 %0.40 °C 
01:45:001.30 °C992.50 hPa94.00 %2.88 km/hSSW1.30 °C0.40 °C 
01:30:001.20 °C992.50 hPa94.00 %0.30 °C 
01:15:001.20 °C992.40 hPa94.00 %9.36 km/hSW-1.70 °C0.30 °C 
01:00:001.30 °C992.60 hPa94.00 %0.40 °C 
00:45:001.30 °C992.20 hPa94.00 %1.44 km/hS1.30 °C0.40 °C 
00:30:001.20 °C992.50 hPa94.00 %2.16 km/hONO1.20 °C0.30 °C 
00:15:001.10 °C992.70 hPa94.00 %0.20 °C 
00:00:001.10 °C992.80 hPa94.00 %2.16 km/hSW1.10 °C0.20 °C 

Permanenter Link zu dieser Seite: Wetter im Erzgebirge am 11.01.2016
Performance-Info: Die Erstellung der Seite / Statistik(en) / Tabelle(n) erforderte 5 Datenbankserver-Abfrage(n) und dauerte 101 Millisekunden. (Dieser Messwert ist von der Gesamt-Auslastung des Servers abhängig.)
Erzgebirge - Wetter | Erzgebirge - Wetter (Mobilgeräte) | Komplette Klimadatenbank